Alexander, North Carolina
Current Conditions -  °F | °C
As of 6:54 PM on Friday 19 Dec 2014 (Local Time) from KAVL Reporting Station
Clear Clear  
Wind Chill: 36°   Ceiling: Unl
Heat Index: 43°   Visibility: 10mi
Dew Point: 27°   Wind: 13mph
Humidity: 53%   Direction: 340°NNW
Pressure: 30.13"   Gusts: NA
Location:  35.69°N, 82.66°W
Report Text: KAVL 192354Z 34011KT 10SM CLR 06/M03 A3013 RMK AO2 SLP207 T00611028 10111 20061 53012
Loading
Personal Weather Stations






























Interactive Weather Map New forecast layout! Learn more

10-Day Weather Forecast

Advertisements
Track Severe Weather on mobile